Log in

NYSE:WSMWilliams-Sonoma Institutional Ownership

$93.17
+3.43 (+3.82 %)
(As of 08/7/2020 04:00 PM ET)
Add
Compare
Today's Range
$89.02
Now: $93.17
$93.34
50-Day Range
$81.54
MA: $84.85
$89.74
52-Week Range
$26.01
Now: $93.17
$93.34
Volume1.54 million shs
Average Volume948,123 shs
Market Capitalization$7.24 billion
P/E Ratio21.77
Dividend Yield2.06%
Beta1.71

Institutional Ownership

Institutional Ownership Changes (13F Filings) for Williams-Sonoma (NYSE:WSM)

Institutional Ownership Percentage: 99.52%

Institutional Buying and Selling by Quarter


Williams-Sonoma (NYSE WSM) Institutional Buying and Selling

Reporting DateHedge FundShares HeldMarket Value% of PortfolioQuarterly Change in SharesOwnership in Company
8/7/2020State Board of Administration of Florida Retirement System116,494$9.55M0.0%-2.9%0.150%
8/7/2020Trexquant Investment LP58,693$4.81M0.3%-60.0%0.075%
8/7/2020PNC Financial Services Group Inc.14,082$1.15M0.0%-11.3%0.018%
8/7/2020New York State Common Retirement Fund140,552$11.53M0.0%-10.2%0.181%
8/7/2020Bell & Brown Wealth Advisors LLC20,290$1.78M1.4%-3.8%0.026%
8/7/2020Schnieders Capital Management LLC4,000$0.33M0.1%N/A0.005%
8/7/2020US Bancorp DE50,904$4.17M0.0%+32.0%0.065%
8/6/2020Mutual of America Capital Management LLC187,303$15.36M0.2%+8.4%0.241%
8/6/2020Princeton Portfolio Strategies Group LLC2,480$0.20M0.0%N/A0.003%
8/6/2020Smith Asset Management Group LP112,830$9.25M0.5%N/A0.145%
8/5/2020Reik & CO. LLC147,132$12.07M3.3%-14.6%0.189%
8/5/2020Principal Financial Group Inc.245,468$20.13M0.0%+0.5%0.316%
8/5/2020Alps Advisors Inc.14,156$1.16M0.0%+120.7%0.018%
8/5/2020Ameritas Investment Partners Inc.34,595$2.84M0.1%+16.6%0.044%
8/5/2020Venturi Wealth Management LLC5,999$0.49M0.1%N/A0.008%
8/5/2020LSV Asset Management362,126$29.70M0.1%-68.5%0.466%
8/5/2020Bessemer Group Inc.8,426$0.69M0.0%+193.6%0.011%
8/5/2020TCW Group Inc.17,494$1.43M0.0%N/A0.022%
8/5/2020Edgemoor Investment Advisors Inc.131,079$10.75M1.4%+0.6%0.169%
8/5/2020Russell Investments Group Ltd.289,319$23.72M0.1%+13.8%0.372%
8/5/2020Fifth Third Bancorp725$59K0.0%N/A0.001%
8/5/2020Swiss National Bank173,000$14.19M0.0%+15.0%0.222%
8/5/2020AE Wealth Management LLC7,283$0.60M0.0%N/A0.009%
8/5/2020WINTON GROUP Ltd108,864$8.93M0.2%-43.8%0.140%
8/4/2020Arizona State Retirement System17,485$1.43M0.0%-4.0%0.022%
8/4/2020Twin Capital Management Inc.40,800$3.35M0.3%-36.8%0.052%
8/4/2020Texas Permanent School Fund61,436$5.04M0.1%-7.0%0.079%
8/4/2020Naples Global Advisors LLC3,000$0.25M0.1%N/A0.004%
8/4/2020Legacy Bridge LLC8,012$0.66M0.7%-32.4%0.010%
8/4/2020Pillar Pacific Capital Management LLC2,600$0.21M0.0%N/A0.003%
8/4/2020Quantitative Systematic Strategies LLC5,173$0.42M0.1%N/A0.007%
8/3/2020Profund Advisors LLC4,238$0.35M0.0%N/A0.005%
8/3/2020ProShare Advisors LLC5,423$0.45M0.0%N/A0.007%
8/3/2020Cadence Capital Management LLC15,881$1.30M0.2%+0.9%0.020%
8/3/2020Speece Thorson Capital Group Inc.69,772$5.72M1.6%-29.6%0.090%
8/3/2020Hamilton Point Investment Advisors LLC42,443$3.48M1.3%+0.9%0.055%
8/3/2020Thomas Story & Son LLC87,610$7.19M3.4%-20.0%0.113%
7/31/2020Comerica Bank57,906$5.03M0.0%+25.3%0.074%
7/31/2020Ingalls & Snyder LLC59,388$4.87M0.3%+5.5%0.076%
7/31/2020Lincoln National Corp5,387$0.44M0.0%-24.9%0.007%
7/31/2020Cadence Bank NA2,682$0.22M0.1%N/A0.003%
7/31/2020Gemmer Asset Management LLC854$70K0.0%+1,193.9%0.001%
7/31/2020Prudential PLC5,382$0.44M0.0%N/A0.007%
7/31/2020Grimes & Company Inc.3,045$0.25M0.0%N/A0.004%
7/31/2020Hussman Strategic Advisors Inc.15,400$1.26M0.3%-76.7%0.020%
7/31/2020UBS Group AG192,227$15.76M0.0%-55.9%0.247%
7/31/2020Mackay Shields LLC37,669$3.09M0.0%N/A0.048%
7/30/2020Brinker Capital Inc.15,438$1.27M0.0%+3.9%0.020%
7/30/2020Institute for Wealth Management LLC.5,372$0.44M0.1%-6.8%0.007%
7/30/2020ARP Americas LP4,535$0.37M0.0%N/A0.006%
7/30/2020Huntington National Bank374$30K0.0%+53.9%0.000%
7/29/2020State of Michigan Retirement System28,329$2.32M0.0%+31.8%0.036%
7/29/2020M&T Bank Corp12,506$1.03M0.0%-4.1%0.016%
7/29/2020Eukles Asset Management3,974$0.33M0.3%-5.3%0.005%
7/29/2020Sciencast Management LP3,753$0.31M0.1%N/A0.005%
7/29/2020Pacer Advisors Inc.13,948$1.14M0.0%-3.8%0.018%
7/29/2020Point View Wealth Management Inc.12,169$1M0.5%-5.4%0.016%
7/29/2020GWM Advisors LLC8,468$0.69M0.0%+23.0%0.011%
7/29/2020B & T Capital Management DBA Alpha Capital Management44,033$3.61M1.2%+1.4%0.057%
7/28/2020DAVENPORT & Co LLC7,076$0.58M0.0%-20.5%0.009%
7/28/2020Beacon Investment Advisory Services Inc.52,150$4.28M0.2%-2.2%0.067%
7/28/2020CIBC Asset Management Inc2,861$0.24M0.0%N/A0.004%
7/28/2020Raymond James & Associates43,720$3.59M0.0%+89.4%0.056%
7/28/2020Zurcher Kantonalbank Zurich Cantonalbank8,532$0.70M0.0%+24.6%0.011%
7/28/2020Vident Investment Advisory LLC4,284$0.35M0.0%-79.6%0.006%
7/27/2020Mount Vernon Associates Inc. MD3,795$0.31M0.4%N/A0.005%
7/27/2020Cambridge Investment Research Advisors Inc.10,769$0.88M0.0%-12.8%0.014%
7/27/2020Nisa Investment Advisors LLC82,890$6.80M0.1%-0.9%0.107%
7/27/2020MAI Capital Management15,974$1.31M0.0%N/A0.021%
7/27/2020OLD National Bancorp IN2,629$0.22M0.0%N/A0.003%
7/27/2020Sumitomo Mitsui Trust Holdings Inc.24,859$2.04M0.0%+194.2%0.032%
7/24/2020Vision Capital Management Inc.19,577$1.61M0.4%-10.8%0.025%
7/24/2020Dupont Capital Management Corp4,429$0.36M0.0%-33.4%0.006%
7/24/2020Covenant Asset Management LLC4,645$0.38M0.1%-10.7%0.006%
7/24/2020World Asset Management Inc4,864$0.40M0.0%-4.4%0.006%
7/24/2020NEXT Financial Group Inc2,556$0.21M0.0%-10.5%0.003%
7/23/2020Strs Ohio8,922$0.73M0.0%-32.7%0.011%
7/23/2020Mcrae Capital Management Inc.137,100$11.24M4.2%-0.1%0.176%
7/23/2020Congress Asset Management Co. MA1,310,850$107.50M1.3%+10,093.2%1.686%
7/23/2020Janney Montgomery Scott LLC20,823$1.71M0.0%+67.1%0.027%
7/23/2020Boston Trust Walden Corp450,683$36.96M0.5%-8.3%0.580%
7/23/2020Retirement Systems of Alabama196,364$16.10M0.1%+0.2%0.253%
7/23/2020Bank of Stockton8,820$0.72M0.3%-22.2%0.011%
7/22/2020First Trust Advisors LP233,763$19.17M0.0%+98.7%0.301%
7/22/2020Grace & White Inc. NY72,400$5.94M1.6%-45.5%0.093%
7/21/2020Smith Graham & Co. Investment Advisors LP78,758$6.46M0.8%+0.4%0.101%
7/21/2020Patten & Patten Inc. TN2,957$0.24M0.0%N/A0.004%
7/21/2020Oregon Public Employees Retirement Fund28,853$2.37M0.0%-3.8%0.037%
7/21/2020New York State Teachers Retirement System119,032$9.76M0.0%-0.2%0.153%
7/21/2020Cairn Investment Group Inc.8,690$0.71M0.9%-3.6%0.011%
7/21/2020Investors Research Corp5,266$0.43M0.2%-31.8%0.007%
7/20/2020Robeco Institutional Asset Management B.V.8,895$0.73M0.0%-69.3%0.011%
7/20/2020Hennessy Advisors Inc.176,000$14.43M1.0%-6.9%0.226%
7/20/2020SG Americas Securities LLC17,373$1.43M0.0%+561.8%0.022%
7/20/2020Plimoth Trust Co. LLC6,844$0.56M0.2%-6.0%0.009%
7/20/2020Symmetry Partners LLC7,937$0.65M0.1%+20.5%0.010%
7/17/2020Csenge Advisory Group2,463$0.20M0.0%N/A0.003%
7/17/2020Vident Investment Advisory LLC4,284$0.35M0.0%-79.6%0.006%
7/17/2020Raymond James Financial Services Advisors Inc.48,428$3.97M0.0%+328.0%0.062%
7/17/2020Beese Fulmer Investment Management Inc.494$41K0.0%N/A0.001%
(Data available from 1/1/2016 forward)
This page was last updated on 8/9/2020 by MarketBeat.com Staff

Enter your email address below to receive a concise daily summary of analysts' upgrades, downgrades and new coverage with MarketBeat.com's FREE daily email newsletter.